Time;durP1;ratioP1;P1;durP2;ratioP2;P2;SDS_P1;SDS_P2;PMS_P1;PMS_P2;Temp;Humidity;BMP_temperature;BMP_pressure;BME280_temperature;BME280_humidity;BME280_pressure;Samples;Min_cycle;Max_cycle;Signal;HPM_P1;HPM_P2
2023/08/13 00:01:57;;;;;;;9.35;4.07;;;;;;;21.66;100.00;-18609.03;5103071;28;20122;-76
2023/08/13 00:04:22;;;;;;;11.30;4.55;;;;;;;21.66;100.00;-18609.03;5101343;28;20446;-75
2023/08/13 00:06:48;;;;;;;17.58;5.47;;;;;;;21.56;100.00;-18606.31;5085924;28;20111;-79
2023/08/13 00:09:13;;;;;;;8.88;3.78;;;;;;;21.55;100.00;-18606.19;5100954;28;20567;-78
2023/08/13 00:11:38;;;;;;;10.70;4.47;;;;;;;21.46;100.00;-18603.72;5106578;28;20119;-79
2023/08/13 00:14:04;;;;;;;12.85;3.80;;;;;;;21.53;100.00;-18605.50;5113609;28;20039;-78
2023/08/13 00:16:29;;;;;;;11.20;4.25;;;;;;;21.44;100.00;-18603.06;5112163;28;20047;-77
2023/08/13 00:18:54;;;;;;;9.80;3.83;;;;;;;21.47;100.00;-18603.88;5111326;28;20106;-78
2023/08/13 00:21:20;;;;;;;8.18;3.70;;;;;;;21.52;100.00;-18605.22;5111209;28;20039;-77
2023/08/13 00:23:45;;;;;;;8.40;4.15;;;;;;;21.58;100.00;-18606.88;5104916;28;20040;-77
2023/08/13 00:26:11;;;;;;;9.35;4.80;;;;;;;21.49;100.00;-18604.41;5106220;28;20035;-77
2023/08/13 00:28:36;;;;;;;9.32;4.43;;;;;;;21.47;100.00;-18603.88;5100934;28;20110;-77
2023/08/13 00:31:01;;;;;;;9.93;4.75;;;;;;;21.45;100.00;-18603.31;5111912;28;20454;-80
2023/08/13 00:33:27;;;;;;;10.23;4.85;;;;;;;21.39;100.00;-18601.97;5105653;28;20491;-80
2023/08/13 00:35:55;;;;;;;9.10;4.60;;;;;;;21.30;100.00;-18599.53;5092638;28;20112;-76
2023/08/13 00:38:20;;;;;;;12.57;4.68;;;;;;;21.18;100.00;-18596.25;5100748;28;20047;-79
2023/08/13 00:40:46;;;;;;;8.30;3.88;;;;;;;21.01;100.00;-18591.63;5107453;28;20043;-78
2023/08/13 00:43:11;;;;;;;11.43;5.18;;;;;;;20.84;100.00;-18587.28;5107355;28;20047;-77
2023/08/13 00:45:37;;;;;;;12.70;5.32;;;;;;;20.82;100.00;-18586.59;5106351;28;20180;-76
2023/08/13 00:48:04;;;;;;;10.50;4.82;;;;;;;20.92;100.00;-18589.47;5109831;28;20052;-78
2023/08/13 00:50:30;;;;;;;10.13;4.47;;;;;;;20.93;100.00;-18589.72;5106014;28;20046;-77
2023/08/13 00:52:55;;;;;;;8.27;3.50;;;;;;;21.11;100.00;-18594.47;5104858;28;20048;-76
2023/08/13 00:55:21;;;;;;;8.15;3.53;;;;;;;21.06;100.00;-18593.00;5082757;28;20047;-77
2023/08/13 00:57:48;;;;;;;13.10;4.05;;;;;;;21.15;100.00;-18595.44;5102770;28;20043;-77
2023/08/13 01:00:14;;;;;;;10.25;3.78;;;;;;;21.14;100.00;-18595.16;5104367;28;20043;-79
2023/08/13 01:02:39;;;;;;;10.93;3.50;;;;;;;21.11;100.00;-18594.34;5100548;28;20043;-79
2023/08/13 01:05:05;;;;;;;8.95;3.25;;;;;;;21.08;100.00;-18593.66;5092735;28;20035;-77
2023/08/13 01:07:38;;;;;;;7.47;3.20;;;;;;;21.13;100.00;-18595.03;5104004;28;20035;-78
2023/08/13 01:10:28;;;;;;;8.60;3.20;;;;;;;20.93;100.00;-18589.72;5088128;28;20036;-77
2023/08/13 01:13:08;;;;;;;7.43;3.40;;;;;;;20.99;100.00;-18591.22;5099059;28;20131;-78
2023/08/13 01:15:38;;;;;;;8.38;3.15;;;;;;;21.02;100.00;-18591.91;5104823;28;20043;-76
2023/08/13 01:18:07;;;;;;;9.25;3.03;;;;;;;20.90;100.00;-18588.78;5107968;28;20043;-77
2023/08/13 01:20:35;;;;;;;7.90;3.15;;;;;;;20.89;100.00;-18588.63;5102921;28;20044;-77
2023/08/13 01:23:01;;;;;;;9.13;2.88;;;;;;;20.80;100.00;-18586.06;5105802;28;20089;-77
2023/08/13 01:25:26;;;;;;;7.18;3.03;;;;;;;20.78;100.00;-18585.66;5098682;28;20899;-78
2023/08/13 01:28:09;;;;;;;8.63;2.97;;;;;;;20.78;100.00;-18585.50;5087795;28;20043;-78
2023/08/13 01:30:41;;;;;;;6.90;3.08;;;;;;;20.72;100.00;-18584.00;5099049;28;20043;-77
2023/08/13 01:33:09;;;;;;;8.55;2.85;;;;;;;20.75;100.00;-18584.69;5102619;28;20042;-79
2023/08/13 01:35:35;;;;;;;13.18;3.65;;;;;;;20.77;100.00;-18585.38;5097524;28;20044;-78
2023/08/13 01:38:02;;;;;;;10.57;3.60;;;;;;;20.76;100.00;-18584.97;5100088;28;20054;-79
2023/08/13 01:40:28;;;;;;;9.43;3.30;;;;;;;20.66;100.00;-18582.38;5104960;28;20043;-76
2023/08/13 01:42:54;;;;;;;8.63;2.72;;;;;;;20.66;100.00;-18582.38;5102533;28;20047;-77
2023/08/13 01:45:19;;;;;;;8.45;2.83;;;;;;;20.69;100.00;-18583.19;5099178;28;20070;-77
2023/08/13 01:47:45;;;;;;;8.35;2.88;;;;;;;20.60;100.00;-18580.88;5105951;28;20040;-78
2023/08/13 01:50:11;;;;;;;9.07;3.33;;;;;;;20.58;100.00;-18580.22;5105658;28;20036;-78
2023/08/13 01:52:36;;;;;;;8.00;3.00;;;;;;;20.54;100.00;-18579.25;5106213;27;20054;-76
2023/08/13 01:55:03;;;;;;;6.97;3.00;;;;;;;20.52;100.00;-18578.72;5104072;28;20050;-75
2023/08/13 01:57:29;;;;;;;11.25;3.15;;;;;;;20.48;100.00;-18577.75;5100052;27;20171;-76
2023/08/13 01:59:54;;;;;;;8.65;2.85;;;;;;;20.37;100.00;-18574.75;5102189;28;20142;-76
2023/08/13 02:02:19;;;;;;;11.00;3.10;;;;;;;20.31;100.00;-18573.13;5102711;28;20036;-78
2023/08/13 02:04:45;;;;;;;8.85;3.22;;;;;;;20.22;100.00;-18570.81;5095609;28;20487;-78
2023/08/13 02:07:10;;;;;;;6.82;3.13;;;;;;;20.14;100.00;-18568.50;5103215;28;20046;-76
2023/08/13 02:09:35;;;;;;;9.02;2.95;;;;;;;20.11;100.00;-18567.81;5097801;28;20047;-79
2023/08/13 02:12:01;;;;;;;8.30;3.50;;;;;;;20.03;100.00;-18565.78;5103232;28;20116;-77
2023/08/13 02:14:27;;;;;;;9.35;3.28;;;;;;;19.91;100.00;-18562.50;5100769;28;20059;-78
2023/08/13 02:16:53;;;;;;;9.93;3.10;;;;;;;20.08;100.00;-18566.88;5102303;28;20154;-77
2023/08/13 02:19:18;;;;;;;9.15;3.65;;;;;;;20.03;100.00;-18565.78;5101799;28;20535;-77
2023/08/13 02:21:44;;;;;;;7.05;2.63;;;;;;;19.99;100.00;-18564.69;5102524;28;20036;-78
2023/08/13 02:24:10;;;;;;;6.53;3.05;;;;;;;20.11;100.00;-18567.69;5102103;28;20044;-77
2023/08/13 02:26:35;;;;;;;10.75;3.40;;;;;;;20.02;100.00;-18565.38;5098658;28;20768;-77
2023/08/13 02:29:00;;;;;;;10.95;3.83;;;;;;;20.08;100.00;-18567.00;5093912;28;20453;-78
2023/08/13 02:31:26;;;;;;;8.80;2.97;;;;;;;19.93;100.00;-18563.06;5100755;28;20046;-80
2023/08/13 02:33:51;;;;;;;10.60;3.38;;;;;;;20.04;100.00;-18566.03;5098296;28;20066;-76
2023/08/13 02:36:16;;;;;;;9.55;3.13;;;;;;;20.06;100.00;-18566.47;5102897;28;20093;-78
2023/08/13 02:38:42;;;;;;;8.65;2.95;;;;;;;19.93;100.00;-18563.06;5083914;28;20036;-76
2023/08/13 02:41:07;;;;;;;7.25;3.08;;;;;;;19.88;100.00;-18561.56;5099595;28;20517;-77
2023/08/13 02:43:53;;;;;;;9.02;3.40;;;;;;;19.90;100.00;-18562.22;5103468;28;20039;-79
2023/08/13 02:46:23;;;;;;;9.07;3.00;;;;;;;19.77;100.00;-18558.69;5074657;28;20717;-76
2023/08/13 02:48:50;;;;;;;6.28;3.38;;;;;;;19.70;100.00;-18556.78;5095972;28;20062;-79
2023/08/13 02:51:16;;;;;;;5.90;2.92;;;;;;;19.78;100.00;-18558.97;5100690;28;20050;-77
2023/08/13 02:53:41;;;;;;;7.03;2.97;;;;;;;19.89;100.00;-18561.97;5098918;28;20040;-77
2023/08/13 02:56:07;;;;;;;12.73;3.38;;;;;;;19.66;100.00;-18555.69;5096032;28;20043;-78
2023/08/13 02:58:33;;;;;;;11.10;3.75;;;;;;;19.59;100.00;-18554.06;5100927;28;20040;-78
2023/08/13 03:00:59;;;;;;;8.95;3.13;;;;;;;19.54;100.00;-18552.69;5093813;28;20835;-77
2023/08/13 03:03:24;;;;;;;9.80;3.28;;;;;;;19.63;100.00;-18554.88;5100385;28;20039;-77
2023/08/13 03:05:49;;;;;;;7.55;2.85;;;;;;;19.46;100.00;-18550.53;5095266;28;20042;-77
2023/08/13 03:08:15;;;;;;;6.63;3.13;;;;;;;19.38;100.00;-18548.34;5096364;28;20064;-79
2023/08/13 03:10:40;;;;;;;8.88;3.25;;;;;;;19.29;100.00;-18545.88;5092040;28;20052;-78
2023/08/13 03:13:06;;;;;;;7.97;3.25;;;;;;;19.29;100.00;-18546.03;5097833;28;20406;-77
2023/08/13 03:15:31;;;;;;;9.20;3.35;;;;;;;19.38;100.00;-18548.47;5099351;28;20043;-79
2023/08/13 03:17:56;;;;;;;10.27;3.45;;;;;;;19.37;100.00;-18548.19;5102223;28;20054;-79
2023/08/13 03:20:22;;;;;;;7.72;2.92;;;;;;;19.26;100.00;-18545.06;5093668;28;20036;-77
2023/08/13 03:22:47;;;;;;;8.85;3.58;;;;;;;19.46;100.00;-18550.53;5098916;28;20439;-77
2023/08/13 03:25:12;;;;;;;11.35;3.53;;;;;;;19.31;100.00;-18546.44;5098539;28;20040;-77
2023/08/13 03:27:38;;;;;;;9.15;3.55;;;;;;;19.41;100.00;-18549.16;5099899;28;20035;-78
2023/08/13 03:30:04;;;;;;;7.18;3.40;;;;;;;19.41;100.00;-18549.03;5104276;28;20044;-78
2023/08/13 03:32:29;;;;;;;10.30;3.33;;;;;;;19.27;100.00;-18545.34;5096691;28;20053;-77
2023/08/13 03:34:54;;;;;;;8.18;3.25;;;;;;;19.26;100.00;-18545.22;5097666;28;20126;-77
2023/08/13 03:37:20;;;;;;;9.82;3.33;;;;;;;19.16;100.00;-18542.47;5099746;28;20063;-76
2023/08/13 03:39:45;;;;;;;9.65;3.47;;;;;;;19.03;100.00;-18538.94;5102798;28;20044;-78
2023/08/13 03:42:10;;;;;;;6.25;3.00;;;;;;;19.10;100.00;-18540.97;5095884;28;20568;-77
2023/08/13 03:44:36;;;;;;;12.98;3.30;;;;;;;18.89;100.00;-18535.41;5100540;28;20464;-78
2023/08/13 03:47:01;;;;;;;10.27;3.60;;;;;;;18.93;100.00;-18536.50;5098169;28;20044;-76
2023/08/13 03:49:26;;;;;;;10.02;4.45;;;;;;;18.90;100.00;-18535.53;5100242;28;20044;-76
2023/08/13 03:51:52;;;;;;;7.78;3.17;;;;;;;18.99;100.00;-18538.00;5101238;28;20044;-77
2023/08/13 03:54:17;;;;;;;10.27;3.42;;;;;;;19.01;100.00;-18538.53;5097691;28;20116;-77
2023/08/13 03:56:43;;;;;;;8.75;3.97;;;;;;;19.00;100.00;-18538.13;5098351;28;20081;-79
2023/08/13 03:59:08;;;;;;;9.60;3.45;;;;;;;19.02;100.00;-18538.81;5096270;28;20230;-77
2023/08/13 04:01:33;;;;;;;9.05;3.63;;;;;;;18.94;100.00;-18536.75;5095938;28;20515;-76
2023/08/13 04:03:59;;;;;;;8.40;3.33;;;;;;;18.89;100.00;-18535.25;5102457;28;20052;-76
2023/08/13 04:06:25;;;;;;;12.43;4.35;;;;;;;18.92;100.00;-18536.06;5082718;28;20117;-78
2023/08/13 04:08:51;;;;;;;11.57;3.90;;;;;;;18.93;100.00;-18536.34;5077078;28;20047;-76
2023/08/13 04:11:16;;;;;;;11.10;3.90;;;;;;;18.78;100.00;-18532.25;5096914;28;20066;-76
2023/08/13 04:13:41;;;;;;;12.18;3.78;;;;;;;18.93;100.00;-18536.50;5096069;28;20039;-77
2023/08/13 04:16:07;;;;;;;10.48;3.83;;;;;;;18.83;100.00;-18533.75;5094552;28;20400;-76
2023/08/13 04:18:32;;;;;;;13.07;4.32;;;;;;;18.89;100.00;-18535.41;5098798;28;20072;-76
2023/08/13 04:20:58;;;;;;;13.20;3.90;;;;;;;18.97;100.00;-18537.44;5080541;28;20040;-78
2023/08/13 04:23:23;;;;;;;11.80;3.58;;;;;;;18.93;100.00;-18536.34;5101739;28;20071;-77
2023/08/13 04:25:48;;;;;;;10.65;3.63;;;;;;;18.93;100.00;-18536.34;5095066;28;20048;-76
2023/08/13 04:28:14;;;;;;;9.98;3.67;;;;;;;18.76;100.00;-18531.72;5090394;28;20055;-78
2023/08/13 04:30:39;;;;;;;9.23;3.03;;;;;;;18.80;100.00;-18532.94;5102395;28;20040;-76
2023/08/13 04:33:05;;;;;;;8.95;3.55;;;;;;;18.81;100.00;-18533.06;5102360;28;20043;-77
2023/08/13 04:35:30;;;;;;;8.00;2.95;;;;;;;18.89;100.00;-18535.41;5092719;28;20035;-75
2023/08/13 04:37:55;;;;;;;11.85;3.47;;;;;;;18.96;100.00;-18537.16;5095984;28;20043;-78
2023/08/13 04:40:21;;;;;;;8.90;3.38;;;;;;;19.01;100.00;-18538.41;5096616;28;20040;-77
2023/08/13 04:42:46;;;;;;;12.40;3.92;;;;;;;18.95;100.00;-18536.91;5099781;28;20039;-78
2023/08/13 04:45:12;;;;;;;7.63;3.42;;;;;;;19.04;100.00;-18539.22;5092346;28;20051;-78
2023/08/13 04:47:38;;;;;;;11.10;3.65;;;;;;;19.16;100.00;-18542.63;5098380;28;20035;-77
2023/08/13 04:50:08;;;;;;;21.77;4.15;;;;;;;19.19;100.00;-18543.16;5101800;28;20462;-79
2023/08/13 04:52:33;;;;;;;10.90;3.50;;;;;;;19.14;100.00;-18541.94;5096591;28;20044;-79
2023/08/13 04:54:59;;;;;;;8.70;3.50;;;;;;;19.20;100.00;-18543.44;5102564;28;20188;-75
2023/08/13 04:57:24;;;;;;;13.43;3.15;;;;;;;19.15;100.00;-18542.34;5098865;28;20043;-76
2023/08/13 04:59:50;;;;;;;9.82;3.17;;;;;;;19.26;100.00;-18545.06;5104616;28;20678;-77
2023/08/13 05:02:15;;;;;;;8.73;3.00;;;;;;;19.23;100.00;-18544.38;5105182;28;20043;-79
2023/08/13 05:04:40;;;;;;;10.32;3.20;;;;;;;19.24;100.00;-18544.66;5105477;28;20047;-79
2023/08/13 05:07:06;;;;;;;9.43;3.00;;;;;;;19.17;100.00;-18542.88;5102262;28;20038;-78
2023/08/13 05:09:31;;;;;;;9.40;3.47;;;;;;;19.17;100.00;-18542.75;5086911;28;20039;-77
2023/08/13 05:11:57;;;;;;;11.25;3.70;;;;;;;19.19;100.00;-18543.31;5103816;28;20047;-79
2023/08/13 05:14:23;;;;;;;7.30;2.35;;;;;;;19.35;100.00;-18547.53;5098382;28;20057;-78
2023/08/13 05:16:48;;;;;;;6.60;2.90;;;;;;;19.38;100.00;-18548.34;5103654;28;20121;-79
2023/08/13 05:19:13;;;;;;;13.32;3.70;;;;;;;19.37;100.00;-18548.06;5100607;28;20084;-77
2023/08/13 05:21:39;;;;;;;13.38;3.25;;;;;;;19.48;100.00;-18550.94;5100354;28;20039;-76
2023/08/13 05:24:05;;;;;;;8.50;3.10;;;;;;;19.43;100.00;-18549.56;5098402;28;20784;-80
2023/08/13 05:26:30;;;;;;;7.93;3.10;;;;;;;19.36;100.00;-18547.78;5088260;28;20498;-79
2023/08/13 05:28:56;;;;;;;9.73;3.17;;;;;;;19.48;100.00;-18551.06;5106233;28;20048;-76
2023/08/13 05:31:21;;;;;;;7.88;2.95;;;;;;;19.67;100.00;-18555.97;5100777;28;20757;-77
2023/08/13 05:33:46;;;;;;;7.78;3.28;;;;;;;19.69;100.00;-18556.66;5105542;28;20522;-78
2023/08/13 05:36:12;;;;;;;10.95;3.75;;;;;;;19.83;100.00;-18560.34;5104559;28;20039;-77
2023/08/13 05:38:37;;;;;;;10.25;3.33;;;;;;;19.90;100.00;-18562.22;5101482;28;20418;-79
2023/08/13 05:41:03;;;;;;;14.07;3.30;;;;;;;19.90;100.00;-18562.22;5107429;28;20184;-81
2023/08/13 05:43:28;;;;;;;8.63;3.00;;;;;;;19.87;100.00;-18561.28;5104104;28;20092;-82
2023/08/13 05:45:53;;;;;;;10.93;2.88;;;;;;;19.89;100.00;-18561.81;5103697;28;20459;-78
2023/08/13 05:48:19;;;;;;;7.10;2.80;;;;;;;19.90;100.00;-18562.09;5103797;28;20060;-79
2023/08/13 05:50:44;;;;;;;12.23;3.17;;;;;;;19.97;100.00;-18564.16;5092990;28;20451;-78
2023/08/13 05:53:10;;;;;;;7.47;2.55;;;;;;;20.00;100.00;-18564.81;5101659;28;20063;-79
2023/08/13 05:55:35;;;;;;;7.88;3.13;;;;;;;19.96;100.00;-18563.72;5103796;28;20036;-79
2023/08/13 05:58:00;;;;;;;7.65;2.70;;;;;;;19.94;100.00;-18563.19;5109611;28;20032;-77
2023/08/13 06:00:27;;;;;;;8.95;2.92;;;;;;;20.09;100.00;-18567.13;5105233;28;20043;-78
2023/08/13 06:02:52;;;;;;;7.68;2.75;;;;;;;20.20;100.00;-18570.28;5075655;22;20053;-82
2023/08/13 06:05:17;;;;;;;8.32;2.58;;;;;;;20.34;100.00;-18573.81;5047670;28;20048;-83
2023/08/13 06:07:43;;;;;;;10.88;2.60;;;;;;;20.41;100.00;-18575.84;5052947;28;20483;-83
2023/08/13 06:10:08;;;;;;;5.90;2.30;;;;;;;20.41;100.00;-18575.84;5047872;28;20396;-83
2023/08/13 06:12:34;;;;;;;9.10;2.30;;;;;;;20.56;100.00;-18579.66;5051328;28;20041;-85
2023/08/13 06:14:59;;;;;;;7.32;2.25;;;;;;;20.53;100.00;-18578.97;5044700;28;20061;-83
2023/08/13 06:17:25;;;;;;;12.48;2.50;;;;;;;20.56;100.00;-18579.78;5052418;28;20128;-83
2023/08/13 06:19:51;;;;;;;8.88;2.55;;;;;;;20.79;100.00;-18585.91;5052320;28;20048;-83
2023/08/13 06:22:17;;;;;;;7.30;2.25;;;;;;;20.66;100.00;-18582.38;5049499;28;20631;-83
2023/08/13 06:24:43;;;;;;;7.28;2.10;;;;;;;20.76;100.00;-18585.09;5044123;28;20038;-81
2023/08/13 06:27:08;;;;;;;7.20;2.13;;;;;;;20.73;100.00;-18584.41;5058211;28;20041;-84
2023/08/13 06:29:34;;;;;;;8.40;2.88;;;;;;;20.65;100.00;-18582.09;5053395;28;20033;-84
2023/08/13 06:31:59;;;;;;;7.18;2.05;;;;;;;20.74;100.00;-18584.56;5053891;28;20403;-83
2023/08/13 06:34:25;;;;;;;8.82;3.10;;;;;;;20.81;100.00;-18586.47;5048079;28;20097;-84
2023/08/13 06:36:51;;;;;;;13.05;2.40;;;;;;;20.83;100.00;-18587.00;5055678;28;20041;-83
2023/08/13 06:39:16;;;;;;;8.77;2.22;;;;;;;20.96;100.00;-18590.53;5051610;28;20119;-84
2023/08/13 06:41:41;;;;;;;9.05;2.63;;;;;;;21.25;100.00;-18598.16;5048038;28;20121;-82
2023/08/13 06:44:18;;;;;;;9.07;2.78;;;;;;;21.10;100.00;-18594.09;5044285;28;20048;-83
2023/08/13 06:46:43;;;;;;;10.23;2.60;;;;;;;21.19;100.00;-18596.53;5038401;28;20135;-83
2023/08/13 06:49:08;;;;;;;9.05;2.40;;;;;;;21.22;100.00;-18597.34;5045771;28;20101;-83
2023/08/13 06:51:34;;;;;;;8.77;2.10;;;;;;;21.17;100.00;-18595.97;5048094;28;20449;-82
2023/08/13 06:53:59;;;;;;;7.43;2.13;;;;;;;21.23;100.00;-18597.63;5044806;28;20041;-83
2023/08/13 06:56:24;;;;;;;8.35;2.00;;;;;;;21.32;100.00;-18599.91;5054869;28;20033;-84
2023/08/13 06:58:50;;;;;;;8.60;2.17;;;;;;;21.30;100.00;-18599.53;5044553;28;20516;-84
2023/08/13 07:01:15;;;;;;;8.93;2.50;;;;;;;21.27;100.00;-18598.56;5055910;28;20124;-84
2023/08/13 07:03:41;;;;;;;9.70;2.20;;;;;;;21.51;100.00;-18605.09;5050979;28;20041;-85
2023/08/13 07:06:07;;;;;;;6.47;2.35;;;;;;;21.48;100.00;-18604.16;5057163;28;20128;-84
2023/08/13 07:08:32;;;;;;;6.88;2.13;;;;;;;21.52;100.00;-18605.22;5059158;28;20072;-82
2023/08/13 07:10:59;;;;;;;8.05;2.00;;;;;;;21.67;100.00;-18609.31;5051504;28;20041;-84
2023/08/13 07:13:25;;;;;;;12.38;2.58;;;;;;;21.75;100.00;-18611.47;5050912;28;20036;-82
2023/08/13 07:15:51;;;;;;;8.25;2.08;;;;;;;21.92;100.00;-18615.97;5046556;28;20036;-84
2023/08/13 07:18:16;;;;;;;8.10;2.25;;;;;;;22.08;100.00;-18620.31;5054746;28;21300;-82
2023/08/13 07:20:42;;;;;;;6.28;1.88;;;;;;;21.94;100.00;-18616.38;5044983;28;20093;-83
2023/08/13 07:23:07;;;;;;;7.93;1.90;;;;;;;21.95;100.00;-18616.66;5042019;28;20064;-84
2023/08/13 07:25:33;;;;;;;7.63;2.40;;;;;;;22.02;100.00;-18618.53;5048096;28;20089;-82
2023/08/13 07:27:58;;;;;;;9.00;2.58;;;;;;;22.12;100.00;-18621.25;5056083;28;20519;-83
2023/08/13 07:30:23;;;;;;;10.52;2.33;;;;;;;22.15;100.00;-18622.06;5042316;28;20415;-84
2023/08/13 07:32:49;;;;;;;10.43;1.85;;;;;;;21.99;100.00;-18617.72;5046555;28;20072;-84
2023/08/13 07:35:14;;;;;;;7.25;1.88;;;;;;;22.13;100.00;-18621.53;5034949;28;20044;-83
2023/08/13 07:37:40;;;;;;;8.23;1.80;;;;;;;22.13;100.00;-18621.53;5050097;28;20037;-83
2023/08/13 07:40:12;;;;;;;8.48;2.08;;;;;;;22.35;100.00;-18627.25;5048290;28;20373;-83
2023/08/13 07:42:39;;;;;;;9.00;2.22;;;;;;;22.38;100.00;-18628.06;5048791;28;20041;-83
2023/08/13 07:45:05;;;;;;;7.15;1.95;;;;;;;22.33;100.00;-18626.69;5049626;28;20047;-84
2023/08/13 07:47:31;;;;;;;7.95;1.80;;;;;;;22.56;100.00;-18632.94;5046928;28;20419;-85
2023/08/13 07:49:57;;;;;;;7.10;1.70;;;;;;;22.70;100.00;-18636.75;5047200;28;20119;-84
2023/08/13 07:52:22;;;;;;;5.10;1.40;;;;;;;22.68;100.00;-18636.19;5048157;28;20104;-85
2023/08/13 07:54:47;;;;;;;9.02;1.95;;;;;;;22.77;100.00;-18638.38;5046235;28;20044;-84
2023/08/13 07:57:13;;;;;;;7.18;1.50;;;;;;;22.69;100.00;-18636.47;5051908;28;20045;-83
2023/08/13 07:59:38;;;;;;;6.22;1.65;;;;;;;22.82;100.00;-18639.72;5047405;28;20044;-84
2023/08/13 08:02:04;;;;;;;6.85;1.77;;;;;;;22.87;100.00;-18641.09;5030193;28;20052;-84
2023/08/13 08:04:30;;;;;;;5.63;1.55;;;;;;;23.06;100.00;-18646.25;5032055;28;20037;-84
2023/08/13 08:06:55;;;;;;;6.20;1.50;;;;;;;23.13;100.00;-18648.16;5049833;28;20564;-84
2023/08/13 08:09:20;;;;;;;6.00;1.20;;;;;;;23.19;100.00;-18649.78;5049581;28;20045;-84
2023/08/13 08:11:47;;;;;;;8.48;1.38;;;;;;;23.29;100.00;-18652.22;5045022;28;20033;-84
2023/08/13 08:14:12;;;;;;;5.40;1.45;;;;;;;23.39;100.00;-18654.94;5048396;28;20037;-84
2023/08/13 08:16:38;;;;;;;6.53;2.45;;;;;;;23.43;100.00;-18656.03;5027123;28;20444;-84
2023/08/13 08:19:04;;;;;;;7.22;1.52;;;;;;;23.49;100.00;-18657.50;5047080;28;20057;-84
2023/08/13 08:21:31;;;;;;;5.97;1.60;;;;;;;23.73;100.00;-18663.88;5048344;28;20039;-84
2023/08/13 08:23:56;;;;;;;5.80;1.60;;;;;;;23.58;100.00;-18660.09;5049525;28;20503;-83
2023/08/13 08:26:21;;;;;;;6.78;1.50;;;;;;;23.62;100.00;-18661.16;5052701;28;20103;-84
2023/08/13 08:28:47;;;;;;;3.72;1.27;;;;;;;23.82;100.00;-18666.31;5048661;28;20041;-83
2023/08/13 08:31:12;;;;;;;4.68;1.48;;;;;;;23.85;100.00;-18667.13;5046254;28;20065;-83
2023/08/13 08:33:37;;;;;;;7.43;1.80;;;;;;;23.96;100.00;-18670.13;5044894;28;21282;-84
2023/08/13 08:36:03;;;;;;;7.47;1.58;;;;;;;23.98;100.00;-18670.66;5030877;28;20057;-84
2023/08/13 08:38:28;;;;;;;9.55;2.30;;;;;;;24.10;100.00;-18673.78;5048528;28;20033;-83
2023/08/13 08:40:54;;;;;;;8.93;2.30;;;;;;;24.05;100.00;-18672.56;5052750;28;20040;-83
2023/08/13 08:43:22;;;;;;;7.57;1.73;;;;;;;24.14;100.00;-18674.72;5033198;28;20035;-83
2023/08/13 08:45:49;;;;;;;8.35;1.73;;;;;;;24.06;100.00;-18672.84;5054255;28;20063;-80
2023/08/13 08:48:14;;;;;;;7.50;1.92;;;;;;;24.18;100.00;-18675.81;5032957;28;20039;-81
2023/08/13 08:50:42;;;;;;;6.43;1.40;;;;;;;24.38;100.00;-18681.22;5053552;28;20041;-82
2023/08/13 08:53:09;;;;;;;4.65;1.80;;;;;;;24.49;100.00;-18684.09;5053981;28;20394;-82
2023/08/13 08:55:34;;;;;;;6.95;1.48;;;;;;;24.35;100.00;-18680.28;5043869;28;20036;-85
2023/08/13 08:58:00;;;;;;;8.98;1.90;;;;;;;24.65;100.00;-18688.28;5032052;28;20465;-83
2023/08/13 09:00:25;;;;;;;8.18;1.67;;;;;;;24.53;100.00;-18685.16;5049481;28;20477;-82
2023/08/13 09:02:50;;;;;;;9.20;1.73;;;;;;;24.47;98.95;-18683.69;5048665;28;20063;-82
2023/08/13 09:05:16;;;;;;;6.60;2.17;;;;;;;24.72;100.00;-18690.31;5055103;28;20091;-82
2023/08/13 09:07:42;;;;;;;9.82;2.17;;;;;;;24.80;98.80;-18692.34;5053081;28;20491;-83
2023/08/13 09:10:08;;;;;;;9.40;2.00;;;;;;;24.85;96.66;-18693.69;5052285;28;20064;-84
2023/08/13 09:12:36;;;;;;;5.78;1.63;;;;;;;24.77;97.62;-18691.53;5047008;28;20116;-81
2023/08/13 09:15:10;;;;;;;7.13;1.80;;;;;;;24.82;97.40;-18692.88;5062426;28;20059;-82
2023/08/13 09:17:36;;;;;;;3.92;1.33;;;;;;;24.81;95.42;-18692.63;5043400;28;20088;-80
2023/08/13 09:20:22;;;;;;;5.10;1.70;;;;;;;24.96;96.01;-18696.53;5046837;28;20683;-80
2023/08/13 09:22:48;;;;;;;6.25;1.80;;;;;;;24.96;95.75;-18696.69;5041833;28;20045;-81
2023/08/13 09:25:15;;;;;;;7.03;1.55;;;;;;;25.07;92.06;-18699.53;5034737;28;20044;-81
2023/08/13 09:27:40;;;;;;;7.90;2.03;;;;;;;25.07;92.80;-18699.53;5046282;28;20048;-83
2023/08/13 09:30:11;;;;;;;5.82;1.50;;;;;;;25.03;93.90;-18698.44;5046749;28;20038;-83
2023/08/13 09:32:36;;;;;;;10.32;2.08;;;;;;;25.20;91.48;-18703.06;5048248;28;20447;-82
2023/08/13 09:35:05;;;;;;;6.93;1.77;;;;;;;25.11;89.81;-18700.47;5032363;28;20044;-80
2023/08/13 09:37:31;;;;;;;;;;;;;;;25.12;91.10;-18700.75;5051890;28;20154;-81
2023/08/13 09:39:56;;;;;;;9.30;1.60;;;;;;;24.95;89.64;-18696.41;5046263;28;19917;-80
2023/08/13 09:42:25;;;;;;;8.05;1.73;;;;;;;24.73;94.16;-18690.44;5041865;28;20091;-80
2023/08/13 09:44:56;;;;;;;7.15;1.70;;;;;;;24.78;94.00;-18691.81;5040099;28;20034;-82
2023/08/13 09:47:25;;;;;;;6.20;1.50;;;;;;;24.74;93.49;-18690.72;5044968;28;20044;-82
2023/08/13 09:49:53;;;;;;;6.68;2.28;;;;;;;24.72;94.35;-18690.19;5048917;28;20086;-83
2023/08/13 09:52:22;;;;;;;7.25;1.73;;;;;;;24.62;96.07;-18687.59;5046423;28;20057;-81
2023/08/13 09:54:53;;;;;;;5.28;1.10;;;;;;;24.56;95.79;-18685.97;5051676;28;20082;-80
2023/08/13 09:57:25;;;;;;;9.88;2.53;;;;;;;24.67;94.57;-18688.97;5048142;28;20041;-80
2023/08/13 09:59:53;;;;;;;7.47;1.85;;;;;;;24.64;95.17;-18688.00;5044110;28;20044;-82
2023/08/13 10:02:21;;;;;;;6.45;1.65;;;;;;;24.74;97.63;-18690.72;5028571;28;20547;-81
2023/08/13 10:04:47;;;;;;;8.15;1.77;;;;;;;24.79;94.37;-18692.06;5041597;28;20041;-80
2023/08/13 10:07:12;;;;;;;9.85;1.85;;;;;;;25.01;95.36;-18697.75;5048702;28;20041;-80
2023/08/13 10:09:40;;;;;;;5.13;1.40;;;;;;;25.02;98.38;-18698.03;5045525;28;20558;-81
2023/08/13 10:12:06;;;;;;;6.93;1.27;;;;;;;25.20;98.11;-18702.91;5045897;28;20068;-82
2023/08/13 10:14:32;;;;;;;4.57;1.83;;;;;;;25.19;92.67;-18702.78;5042504;28;20029;-82
2023/08/13 10:17:06;;;;;;;7.55;1.70;;;;;;;25.29;95.02;-18705.34;5035619;28;20455;-83
2023/08/13 10:19:38;;;;;;;8.15;1.63;;;;;;;25.44;90.62;-18709.41;5042716;28;20106;-82
2023/08/13 10:22:04;;;;;;;5.55;1.77;;;;;;;25.24;87.99;-18704.00;5032971;28;20052;-83
2023/08/13 10:24:30;;;;;;;5.97;1.63;;;;;;;25.28;92.07;-18704.94;5043974;28;20037;-82
2023/08/13 10:26:58;;;;;;;5.43;1.77;;;;;;;25.15;87.73;-18701.56;5043430;28;20100;-83
2023/08/13 10:29:24;;;;;;;6.45;1.67;;;;;;;25.16;85.19;-18701.81;5035412;28;20578;-81
2023/08/13 10:32:00;;;;;;;4.30;1.40;;;;;;;25.30;84.42;-18705.47;5034587;28;20034;-83
2023/08/13 10:34:39;;;;;;;5.55;1.20;;;;;;;25.17;84.60;-18702.22;5038746;28;20045;-83
2023/08/13 10:37:14;;;;;;;5.40;1.58;;;;;;;25.21;89.10;-18703.31;5048829;28;20127;-81
2023/08/13 10:39:43;;;;;;;6.30;1.50;;;;;;;25.25;88.00;-18704.25;5045720;28;20040;-81
2023/08/13 10:42:26;;;;;;;;;;;;;;;25.46;89.59;-18709.69;5043745;28;20660;-83
2023/08/13 10:45:17;;;;;;;8.63;1.38;;;;;;;25.41;89.19;-18708.59;5042184;28;19959;-82
2023/08/13 10:48:00;;;;;;;5.78;1.65;;;;;;;25.52;89.98;-18711.31;5033734;28;20175;-83
2023/08/13 10:50:31;;;;;;;4.13;1.15;;;;;;;25.74;85.51;-18717.25;5044994;28;20060;-82
2023/08/13 10:53:09;;;;;;;6.60;1.52;;;;;;;25.76;83.96;-18717.66;5044509;28;20052;-82
2023/08/13 10:55:41;;;;;;;7.88;1.60;;;;;;;25.85;80.98;-18720.09;5042007;28;20045;-83
2023/08/13 10:58:21;;;;;;;6.55;1.35;;;;;;;25.87;77.17;-18720.63;5028753;28;20041;-83
2023/08/13 11:00:47;;;;;;;7.45;1.15;;;;;;;25.78;76.52;-18718.19;5042818;28;20065;-83
2023/08/13 11:03:20;;;;;;;3.25;0.90;;;;;;;25.78;76.45;-18718.34;5043661;28;20278;-83
2023/08/13 11:05:47;;;;;;;3.50;1.00;;;;;;;25.92;80.42;-18721.84;5043114;28;20112;-83
2023/08/13 11:08:21;;;;;;;5.28;1.25;;;;;;;25.99;81.15;-18723.75;5026217;28;20033;-83
2023/08/13 11:10:47;;;;;;;5.47;1.40;;;;;;;26.07;79.01;-18726.06;5032599;28;20072;-82
2023/08/13 11:13:13;;;;;;;7.65;1.35;;;;;;;26.08;80.19;-18726.19;5026868;28;20063;-81
2023/08/13 11:15:41;;;;;;;5.18;1.30;;;;;;;26.09;79.39;-18726.44;5040833;28;20037;-84